Impacts TAF Board
For situational awareness. Not to be used for flight planning purposes.
IDs:

KSAT - San Antonio Intl, TX, US

Issued at 1029 UTC 25 Oct 2020
Updated at 1045 UTC 25 Oct 2020
Potential Impact None Slight Moderate High
Time1041Z 25/11Z 25/12Z 25/13Z 25/14Z 25/15Z 25/16Z 25/17Z 25/18Z 25/19Z 25/20Z 25/21Z 25/22Z 25/23Z>>
Type OBS PRVL PRVL PRVL PRVL PRVL PRVL PRVL PRVL PRVL PRVL PRVL PRVL PRVL
VIS 10 >6 >6 >6 >6 >6 >6 >6 >6 >6 >6 >6 >6 >6
CIG 28 30 16 16 16 16 16 16 21 21 21 35 35 35
Cover OVC BKN OVC OVC OVC OVC OVC OVC OVC OVC OVC BKN BKN BKN
FltCat MVFR MVFR MVFR MVFR MVFR MVFR MVFR MVFR MVFR MVFR MVFR VFR VFR VFR
WX -- -- -- -- -- -- -- -- -- -- -- -- -- --
WDir 180 180 180 180 180 180 180 180 170 170 170 160 160 160
WSpd 4 4 5 5 5 5 5 5 10 10 10 9 9 9
WGst -- -- -- -- -- -- -- -- -- -- -- -- -- --
R04/22
XWnd -3 -3 -3 -3 -3 -3 -3 -3 -8 -8 -8 -8 -8 -8
HWnd -3 -3 -4 -4 -4 -4 -4 -4 -6 -6 -6 -4 -4 -4
R12/30
XWnd -3 -3 -4 -4 -4 -4 -4 -4 -6 -6 -6 -4 -4 -4
HWnd 3 3 3 3 3 3 3 3 8 8 8 8 8 8
Raw TAF
KSAT 251029Z 2510/2612 18004KT P6SM BKN030
  FM251200 18005KT P6SM OVC016
  FM251800 17010KT P6SM OVC021
  FM252100 16009KT P6SM BKN035
  FM260300 17010KT P6SM BKN022
  FM260900 15009KT P6SM OVC009


Raw METAR
KSAT 251041Z 18004KT 10SM FEW021 OVC028 16/11 A2994 RMK AO2 T01610106
KSAT 250951Z 18004KT 10SM BKN031 16/10 A2993 RMK AO2 SLP123 T01610100
KSAT 250851Z 00000KT 10SM CLR 14/09 A2993 RMK AO2 SLP122 T01390094 56007
KSAT 250751Z 00000KT 10SM CLR 14/09 A2993 RMK AO2 SLP123 T01440089

METAR Board
Radar Display
Forecast Discussion
For situational awareness. Not to be used for flight planning purposes.